sensor_id;sensor_type;location;lat;lon;timestamp;P1;durP1;ratioP1;P2;durP2;ratioP2
58974;SDS011;44751;52.236;5.178;2023-04-01T00:01:09;26.00;;;8.50;;
58974;SDS011;44751;52.236;5.178;2023-04-01T00:03:38;30.27;;;8.65;;
58974;SDS011;44751;52.236;5.178;2023-04-01T00:06:15;24.65;;;7.88;;
58974;SDS011;44751;52.236;5.178;2023-04-01T00:08:43;24.30;;;8.77;;
58974;SDS011;44751;52.236;5.178;2023-04-01T00:11:10;25.40;;;8.70;;
58974;SDS011;44751;52.236;5.178;2023-04-01T00:13:40;26.17;;;10.20;;
58974;SDS011;44751;52.236;5.178;2023-04-01T00:16:10;25.88;;;8.52;;
58974;SDS011;44751;52.236;5.178;2023-04-01T00:18:38;27.70;;;8.75;;
58974;SDS011;44751;52.236;5.178;2023-04-01T00:21:07;26.65;;;8.52;;
58974;SDS011;44751;52.236;5.178;2023-04-01T00:23:51;25.55;;;9.35;;
58974;SDS011;44751;52.236;5.178;2023-04-01T00:26:18;28.23;;;9.90;;
58974;SDS011;44751;52.236;5.178;2023-04-01T00:28:47;25.77;;;9.00;;
58974;SDS011;44751;52.236;5.178;2023-04-01T00:31:17;24.83;;;9.85;;
58974;SDS011;44751;52.236;5.178;2023-04-01T00:33:45;35.35;;;10.85;;
58974;SDS011;44751;52.236;5.178;2023-04-01T00:36:13;29.48;;;11.05;;
58974;SDS011;44751;52.236;5.178;2023-04-01T00:38:43;30.88;;;11.60;;
58974;SDS011;44751;52.236;5.178;2023-04-01T00:41:17;29.67;;;11.48;;
58974;SDS011;44751;52.236;5.178;2023-04-01T00:43:47;30.17;;;11.68;;
58974;SDS011;44751;52.236;5.178;2023-04-01T00:46:15;32.92;;;11.55;;
58974;SDS011;44751;52.236;5.178;2023-04-01T00:48:49;32.65;;;12.77;;
58974;SDS011;44751;52.236;5.178;2023-04-01T00:51:22;32.50;;;12.25;;
58974;SDS011;44751;52.236;5.178;2023-04-01T00:53:54;36.77;;;12.97;;
58974;SDS011;44751;52.236;5.178;2023-04-01T00:59:10;29.52;;;11.88;;
58974;SDS011;44751;52.236;5.178;2023-04-01T01:01:49;24.27;;;10.75;;
58974;SDS011;44751;52.236;5.178;2023-04-01T01:04:26;30.10;;;10.13;;
58974;SDS011;44751;52.236;5.178;2023-04-01T01:09:46;22.52;;;9.88;;
58974;SDS011;44751;52.236;5.178;2023-04-01T01:12:35;21.60;;;8.13;;
58974;SDS011;44751;52.236;5.178;2023-04-01T01:15:21;20.33;;;7.78;;
58974;SDS011;44751;52.236;5.178;2023-04-01T01:38:07;12.73;;;6.28;;
58974;SDS011;44751;52.236;5.178;2023-04-01T01:40:38;10.55;;;6.07;;
58974;SDS011;44751;52.236;5.178;2023-04-01T01:43:08;11.80;;;5.55;;
58974;SDS011;44751;52.236;5.178;2023-04-01T01:45:45;11.75;;;5.70;;
58974;SDS011;44751;52.236;5.178;2023-04-01T01:48:38;11.10;;;5.28;;
58974;SDS011;44751;52.236;5.178;2023-04-01T01:51:08;10.43;;;4.97;;
58974;SDS011;44751;52.236;5.178;2023-04-01T01:53:38;11.65;;;5.35;;
58974;SDS011;44751;52.236;5.178;2023-04-01T01:56:07;9.63;;;4.85;;
58974;SDS011;44751;52.236;5.178;2023-04-01T01:58:45;9.13;;;4.63;;
58974;SDS011;44751;52.236;5.178;2023-04-01T02:01:17;10.68;;;4.93;;
58974;SDS011;44751;52.236;5.178;2023-04-01T02:03:52;9.85;;;4.70;;
58974;SDS011;44751;52.236;5.178;2023-04-01T02:06:22;9.13;;;4.82;;
58974;SDS011;44751;52.236;5.178;2023-04-01T02:14:26;9.02;;;5.07;;
58974;SDS011;44751;52.236;5.178;2023-04-01T02:19:38;8.50;;;5.57;;
58974;SDS011;44751;52.236;5.178;2023-04-01T02:22:27;10.18;;;5.60;;
58974;SDS011;44751;52.236;5.178;2023-04-01T02:24:58;9.55;;;5.32;;
58974;SDS011;44751;52.236;5.178;2023-04-01T02:27:29;9.10;;;5.22;;
58974;SDS011;44751;52.236;5.178;2023-04-01T02:29:57;11.23;;;5.38;;
58974;SDS011;44751;52.236;5.178;2023-04-01T02:32:24;10.40;;;5.90;;
58974;SDS011;44751;52.236;5.178;2023-04-01T02:34:57;10.07;;;5.75;;
58974;SDS011;44751;52.236;5.178;2023-04-01T02:37:28;8.50;;;6.57;;
58974;SDS011;44751;52.236;5.178;2023-04-01T02:39:58;13.77;;;7.20;;
58974;SDS011;44751;52.236;5.178;2023-04-01T02:42:26;10.30;;;7.00;;
58974;SDS011;44751;52.236;5.178;2023-04-01T02:44:59;16.95;;;8.70;;
58974;SDS011;44751;52.236;5.178;2023-04-01T02:47:26;12.55;;;8.02;;
58974;SDS011;44751;52.236;5.178;2023-04-01T02:49:52;14.73;;;9.07;;
58974;SDS011;44751;52.236;5.178;2023-04-01T02:52:26;15.88;;;8.90;;
58974;SDS011;44751;52.236;5.178;2023-04-01T02:54:56;16.05;;;8.63;;
58974;SDS011;44751;52.236;5.178;2023-04-01T02:57:24;15.75;;;9.32;;
58974;SDS011;44751;52.236;5.178;2023-04-01T02:59:51;18.25;;;10.77;;
58974;SDS011;44751;52.236;5.178;2023-04-01T03:02:18;19.27;;;10.98;;
58974;SDS011;44751;52.236;5.178;2023-04-01T03:04:50;15.90;;;10.40;;
58974;SDS011;44751;52.236;5.178;2023-04-01T03:07:17;26.50;;;12.57;;
58974;SDS011;44751;52.236;5.178;2023-04-01T03:09:43;26.13;;;13.73;;
58974;SDS011;44751;52.236;5.178;2023-04-01T03:12:10;23.58;;;13.35;;
58974;SDS011;44751;52.236;5.178;2023-04-01T03:14:39;23.52;;;13.32;;
58974;SDS011;44751;52.236;5.178;2023-04-01T03:17:08;24.95;;;13.40;;
58974;SDS011;44751;52.236;5.178;2023-04-01T03:19:38;20.80;;;12.20;;
58974;SDS011;44751;52.236;5.178;2023-04-01T03:22:09;23.25;;;12.65;;
58974;SDS011;44751;52.236;5.178;2023-04-01T03:24:37;17.73;;;10.38;;
58974;SDS011;44751;52.236;5.178;2023-04-01T03:27:04;18.83;;;10.60;;
58974;SDS011;44751;52.236;5.178;2023-04-01T03:29:30;16.48;;;9.63;;
58974;SDS011;44751;52.236;5.178;2023-04-01T03:31:57;21.10;;;10.70;;
58974;SDS011;44751;52.236;5.178;2023-04-01T03:34:24;14.40;;;9.00;;
58974;SDS011;44751;52.236;5.178;2023-04-01T03:36:52;18.23;;;9.60;;
58974;SDS011;44751;52.236;5.178;2023-04-01T03:39:21;14.80;;;8.60;;
58974;SDS011;44751;52.236;5.178;2023-04-01T03:41:48;16.23;;;9.00;;
58974;SDS011;44751;52.236;5.178;2023-04-01T03:44:15;15.57;;;9.18;;
58974;SDS011;44751;52.236;5.178;2023-04-01T03:46:42;19.98;;;9.65;;
58974;SDS011;44751;52.236;5.178;2023-04-01T03:49:12;16.60;;;9.75;;
58974;SDS011;44751;52.236;5.178;2023-04-01T03:51:44;19.48;;;9.82;;
58974;SDS011;44751;52.236;5.178;2023-04-01T03:54:14;16.80;;;8.95;;
58974;SDS011;44751;52.236;5.178;2023-04-01T03:56:40;18.73;;;9.20;;
58974;SDS011;44751;52.236;5.178;2023-04-01T03:59:07;13.68;;;7.80;;
58974;SDS011;44751;52.236;5.178;2023-04-01T04:01:34;12.25;;;7.28;;
58974;SDS011;44751;52.236;5.178;2023-04-01T04:04:07;10.75;;;6.55;;
58974;SDS011;44751;52.236;5.178;2023-04-01T04:06:36;8.25;;;4.30;;
58974;SDS011;44751;52.236;5.178;2023-04-01T04:09:02;7.43;;;4.97;;
58974;SDS011;44751;52.236;5.178;2023-04-01T04:11:31;8.15;;;4.70;;
58974;SDS011;44751;52.236;5.178;2023-04-01T04:14:00;8.60;;;4.35;;
58974;SDS011;44751;52.236;5.178;2023-04-01T04:16:27;8.38;;;4.43;;
58974;SDS011;44751;52.236;5.178;2023-04-01T04:18:53;8.18;;;4.22;;
58974;SDS011;44751;52.236;5.178;2023-04-01T04:21:20;6.43;;;4.18;;
58974;SDS011;44751;52.236;5.178;2023-04-01T04:23:46;7.22;;;4.97;;
58974;SDS011;44751;52.236;5.178;2023-04-01T04:26:16;7.22;;;5.38;;
58974;SDS011;44751;52.236;5.178;2023-04-01T04:28:43;8.73;;;5.43;;
58974;SDS011;44751;52.236;5.178;2023-04-01T04:31:09;7.35;;;5.28;;
58974;SDS011;44751;52.236;5.178;2023-04-01T04:33:38;8.80;;;5.65;;
58974;SDS011;44751;52.236;5.178;2023-04-01T04:36:14;8.32;;;5.80;;
58974;SDS011;44751;52.236;5.178;2023-04-01T04:38:41;9.93;;;6.65;;
58974;SDS011;44751;52.236;5.178;2023-04-01T04:41:15;9.73;;;6.18;;
58974;SDS011;44751;52.236;5.178;2023-04-01T04:43:54;10.15;;;6.50;;
58974;SDS011;44751;52.236;5.178;2023-04-01T04:46:23;9.02;;;6.35;;
58974;SDS011;44751;52.236;5.178;2023-04-01T04:48:50;10.82;;;6.55;;
58974;SDS011;44751;52.236;5.178;2023-04-01T04:51:17;9.68;;;6.63;;
58974;SDS011;44751;52.236;5.178;2023-04-01T04:53:49;10.05;;;7.00;;
58974;SDS011;44751;52.236;5.178;2023-04-01T04:56:22;10.07;;;7.05;;
58974;SDS011;44751;52.236;5.178;2023-04-01T04:58:50;10.68;;;6.72;;
58974;SDS011;44751;52.236;5.178;2023-04-01T05:01:17;12.45;;;7.53;;
58974;SDS011;44751;52.236;5.178;2023-04-01T05:04:04;11.07;;;7.53;;
58974;SDS011;44751;52.236;5.178;2023-04-01T05:06:33;12.15;;;7.95;;
58974;SDS011;44751;52.236;5.178;2023-04-01T05:09:00;11.98;;;7.55;;
58974;SDS011;44751;52.236;5.178;2023-04-01T05:11:28;10.68;;;7.80;;
58974;SDS011;44751;52.236;5.178;2023-04-01T05:13:55;11.63;;;7.88;;
58974;SDS011;44751;52.236;5.178;2023-04-01T05:16:22;11.10;;;8.02;;
58974;SDS011;44751;52.236;5.178;2023-04-01T05:18:48;11.27;;;7.70;;
58974;SDS011;44751;52.236;5.178;2023-04-01T05:21:21;12.95;;;8.30;;
58974;SDS011;44751;52.236;5.178;2023-04-01T05:23:48;11.95;;;8.13;;
58974;SDS011;44751;52.236;5.178;2023-04-01T05:26:15;12.43;;;8.13;;
58974;SDS011;44751;52.236;5.178;2023-04-01T05:28:42;11.73;;;7.93;;
58974;SDS011;44751;52.236;5.178;2023-04-01T05:31:26;12.32;;;7.93;;
58974;SDS011;44751;52.236;5.178;2023-04-01T05:33:53;11.93;;;7.45;;
58974;SDS011;44751;52.236;5.178;2023-04-01T05:36:19;10.75;;;7.63;;
58974;SDS011;44751;52.236;5.178;2023-04-01T05:38:49;12.52;;;7.93;;
58974;SDS011;44751;52.236;5.178;2023-04-01T05:41:18;11.68;;;7.85;;
58974;SDS011;44751;52.236;5.178;2023-04-01T05:43:45;11.27;;;7.38;;
58974;SDS011;44751;52.236;5.178;2023-04-01T05:46:14;10.45;;;7.57;;
58974;SDS011;44751;52.236;5.178;2023-04-01T05:48:41;11.73;;;7.93;;
58974;SDS011;44751;52.236;5.178;2023-04-01T05:51:14;12.73;;;8.35;;
58974;SDS011;44751;52.236;5.178;2023-04-01T05:53:42;11.57;;;7.50;;
58974;SDS011;44751;52.236;5.178;2023-04-01T05:56:12;11.50;;;7.80;;
58974;SDS011;44751;52.236;5.178;2023-04-01T05:58:39;11.05;;;7.88;;
58974;SDS011;44751;52.236;5.178;2023-04-01T06:01:07;10.65;;;7.43;;
58974;SDS011;44751;52.236;5.178;2023-04-01T06:03:37;10.52;;;7.38;;
58974;SDS011;44751;52.236;5.178;2023-04-01T06:06:04;11.25;;;7.15;;
58974;SDS011;44751;52.236;5.178;2023-04-01T06:08:42;11.30;;;7.45;;
58974;SDS011;44751;52.236;5.178;2023-04-01T06:14:06;10.23;;;7.30;;
58974;SDS011;44751;52.236;5.178;2023-04-01T06:22:47;10.38;;;6.10;;
58974;SDS011;44751;52.236;5.178;2023-04-01T06:25:38;10.88;;;6.53;;
58974;SDS011;44751;52.236;5.178;2023-04-01T06:40:20;7.05;;;4.28;;
58974;SDS011;44751;52.236;5.178;2023-04-01T06:42:50;8.00;;;4.88;;
58974;SDS011;44751;52.236;5.178;2023-04-01T06:45:40;6.13;;;4.05;;
58974;SDS011;44751;52.236;5.178;2023-04-01T06:48:22;7.20;;;4.22;;
58974;SDS011;44751;52.236;5.178;2023-04-01T06:51:18;6.53;;;3.85;;
58974;SDS011;44751;52.236;5.178;2023-04-01T06:56:45;10.35;;;6.10;;
58974;SDS011;44751;52.236;5.178;2023-04-01T06:59:21;12.27;;;7.60;;
58974;SDS011;44751;52.236;5.178;2023-04-01T07:01:55;12.32;;;7.93;;
58974;SDS011;44751;52.236;5.178;2023-04-01T07:04:46;13.82;;;8.35;;
58974;SDS011;44751;52.236;5.178;2023-04-01T07:10:42;12.60;;;7.05;;
58974;SDS011;44751;52.236;5.178;2023-04-01T07:13:15;11.13;;;7.38;;
58974;SDS011;44751;52.236;5.178;2023-04-01T07:15:54;11.23;;;7.40;;
58974;SDS011;44751;52.236;5.178;2023-04-01T07:21:34;13.82;;;8.20;;
58974;SDS011;44751;52.236;5.178;2023-04-01T07:24:09;16.10;;;8.00;;
58974;SDS011;44751;52.236;5.178;2023-04-01T07:26:43;13.93;;;7.75;;
58974;SDS011;44751;52.236;5.178;2023-04-01T07:29:19;12.90;;;7.80;;
58974;SDS011;44751;52.236;5.178;2023-04-01T07:31:50;12.82;;;8.25;;
58974;SDS011;44751;52.236;5.178;2023-04-01T07:34:30;16.38;;;9.18;;
58974;SDS011;44751;52.236;5.178;2023-04-01T07:37:10;15.10;;;8.50;;
58974;SDS011;44751;52.236;5.178;2023-04-01T07:51:34;19.05;;;10.60;;
58974;SDS011;44751;52.236;5.178;2023-04-01T07:59:49;20.92;;;10.90;;
58974;SDS011;44751;52.236;5.178;2023-04-01T08:05:28;18.80;;;10.57;;
58974;SDS011;44751;52.236;5.178;2023-04-01T08:10:49;17.42;;;9.95;;
58974;SDS011;44751;52.236;5.178;2023-04-01T08:13:36;16.40;;;9.38;;
58974;SDS011;44751;52.236;5.178;2023-04-01T08:16:17;14.50;;;9.05;;
58974;SDS011;44751;52.236;5.178;2023-04-01T08:21:45;15.93;;;9.50;;
58974;SDS011;44751;52.236;5.178;2023-04-01T08:24:41;15.20;;;10.23;;
58974;SDS011;44751;52.236;5.178;2023-04-01T08:27:22;15.40;;;9.75;;
58974;SDS011;44751;52.236;5.178;2023-04-01T08:29:57;15.18;;;9.70;;
58974;SDS011;44751;52.236;5.178;2023-04-01T08:39:03;15.07;;;9.20;;
58974;SDS011;44751;52.236;5.178;2023-04-01T08:41:55;13.65;;;8.88;;
58974;SDS011;44751;52.236;5.178;2023-04-01T08:47:40;14.52;;;8.30;;
58974;SDS011;44751;52.236;5.178;2023-04-01T08:53:12;13.60;;;8.13;;
58974;SDS011;44751;52.236;5.178;2023-04-01T09:01:48;11.90;;;6.90;;
58974;SDS011;44751;52.236;5.178;2023-04-01T09:07:45;10.48;;;6.85;;
58974;SDS011;44751;52.236;5.178;2023-04-01T09:10:55;11.45;;;5.82;;
58974;SDS011;44751;52.236;5.178;2023-04-01T09:16:42;10.82;;;7.32;;
58974;SDS011;44751;52.236;5.178;2023-04-01T09:22:42;11.73;;;5.63;;
58974;SDS011;44751;52.236;5.178;2023-04-01T09:30:46;9.82;;;6.43;;
58974;SDS011;44751;52.236;5.178;2023-04-01T09:48:14;10.65;;;7.10;;
58974;SDS011;44751;52.236;5.178;2023-04-01T09:50:52;15.73;;;8.18;;
58974;SDS011;44751;52.236;5.178;2023-04-01T10:08:09;14.45;;;9.43;;
58974;SDS011;44751;52.236;5.178;2023-04-01T10:11:15;12.88;;;9.63;;
58974;SDS011;44751;52.236;5.178;2023-04-01T10:14:33;12.57;;;9.10;;
58974;SDS011;44751;52.236;5.178;2023-04-01T10:48:32;10.18;;;7.65;;
58974;SDS011;44751;52.236;5.178;2023-04-01T10:56:51;9.20;;;6.60;;
58974;SDS011;44751;52.236;5.178;2023-04-01T11:02:22;9.70;;;6.78;;
58974;SDS011;44751;52.236;5.178;2023-04-01T11:05:35;8.30;;;6.03;;
58974;SDS011;44751;52.236;5.178;2023-04-01T11:14:15;9.00;;;6.10;;
58974;SDS011;44751;52.236;5.178;2023-04-01T11:25:49;8.35;;;6.30;;
58974;SDS011;44751;52.236;5.178;2023-04-01T11:37:35;10.68;;;7.85;;
58974;SDS011;44751;52.236;5.178;2023-04-01T11:50:52;13.25;;;9.48;;
58974;SDS011;44751;52.236;5.178;2023-04-01T11:59:34;11.52;;;9.18;;
58974;SDS011;44751;52.236;5.178;2023-04-01T12:02:31;12.40;;;9.88;;
58974;SDS011;44751;52.236;5.178;2023-04-01T12:05:36;15.18;;;10.60;;
58974;SDS011;44751;52.236;5.178;2023-04-01T12:11:00;15.20;;;9.75;;
58974;SDS011;44751;52.236;5.178;2023-04-01T12:19:48;14.15;;;9.30;;
58974;SDS011;44751;52.236;5.178;2023-04-01T12:39:51;14.70;;;9.40;;
58974;SDS011;44751;52.236;5.178;2023-04-01T12:48:00;13.23;;;8.48;;
58974;SDS011;44751;52.236;5.178;2023-04-01T13:15:41;8.20;;;6.72;;
58974;SDS011;44751;52.236;5.178;2023-04-01T13:18:21;9.43;;;6.82;;
58974;SDS011;44751;52.236;5.178;2023-04-01T13:26:34;6.25;;;5.65;;
58974;SDS011;44751;52.236;5.178;2023-04-01T13:40:33;9.60;;;7.03;;
58974;SDS011;44751;52.236;5.178;2023-04-01T14:02:40;8.75;;;7.57;;
58974;SDS011;44751;52.236;5.178;2023-04-01T14:11:39;10.95;;;7.10;;
58974;SDS011;44751;52.236;5.178;2023-04-01T14:30:51;9.07;;;7.03;;
58974;SDS011;44751;52.236;5.178;2023-04-01T14:55:58;8.18;;;6.63;;
58974;SDS011;44751;52.236;5.178;2023-04-01T14:58:46;9.27;;;6.95;;
58974;SDS011;44751;52.236;5.178;2023-04-01T15:01:53;12.18;;;7.22;;
58974;SDS011;44751;52.236;5.178;2023-04-01T15:07:01;9.02;;;6.90;;
58974;SDS011;44751;52.236;5.178;2023-04-01T15:09:43;7.95;;;6.38;;
58974;SDS011;44751;52.236;5.178;2023-04-01T15:12:18;7.63;;;5.80;;
58974;SDS011;44751;52.236;5.178;2023-04-01T15:15:01;7.13;;;6.25;;
58974;SDS011;44751;52.236;5.178;2023-04-01T15:17:35;8.93;;;6.72;;
58974;SDS011;44751;52.236;5.178;2023-04-01T15:26:20;7.75;;;6.07;;
58974;SDS011;44751;52.236;5.178;2023-04-01T15:31:55;7.60;;;5.40;;
58974;SDS011;44751;52.236;5.178;2023-04-01T15:35:34;8.65;;;6.25;;
58974;SDS011;44751;52.236;5.178;2023-04-01T15:40:48;7.20;;;5.85;;
58974;SDS011;44751;52.236;5.178;2023-04-01T15:46:20;9.05;;;6.18;;
58974;SDS011;44751;52.236;5.178;2023-04-01T15:49:12;7.22;;;6.22;;
58974;SDS011;44751;52.236;5.178;2023-04-01T15:57:43;9.15;;;6.10;;
58974;SDS011;44751;52.236;5.178;2023-04-01T16:00:49;6.93;;;5.40;;
58974;SDS011;44751;52.236;5.178;2023-04-01T16:12:15;6.88;;;5.25;;
58974;SDS011;44751;52.236;5.178;2023-04-01T16:20:20;5.40;;;4.25;;
58974;SDS011;44751;52.236;5.178;2023-04-01T16:25:58;3.92;;;3.50;;
58974;SDS011;44751;52.236;5.178;2023-04-01T16:28:53;3.70;;;3.13;;
58974;SDS011;44751;52.236;5.178;2023-04-01T16:37:13;2.95;;;2.55;;
58974;SDS011;44751;52.236;5.178;2023-04-01T16:43:14;2.97;;;2.53;;
58974;SDS011;44751;52.236;5.178;2023-04-01T16:48:57;3.25;;;2.95;;
58974;SDS011;44751;52.236;5.178;2023-04-01T16:51:32;4.15;;;3.50;;
58974;SDS011;44751;52.236;5.178;2023-04-01T16:54:16;3.88;;;3.47;;
58974;SDS011;44751;52.236;5.178;2023-04-01T16:57:04;3.80;;;3.40;;
58974;SDS011;44751;52.236;5.178;2023-04-01T16:59:48;5.35;;;4.45;;
58974;SDS011;44751;52.236;5.178;2023-04-01T17:02:43;4.25;;;3.85;;
58974;SDS011;44751;52.236;5.178;2023-04-01T17:05:17;4.20;;;3.80;;
58974;SDS011;44751;52.236;5.178;2023-04-01T17:07:48;4.18;;;3.40;;
58974;SDS011;44751;52.236;5.178;2023-04-01T17:10:32;3.28;;;2.97;;
58974;SDS011;44751;52.236;5.178;2023-04-01T17:18:50;2.47;;;2.28;;
58974;SDS011;44751;52.236;5.178;2023-04-01T17:27:50;2.42;;;2.22;;
58974;SDS011;44751;52.236;5.178;2023-04-01T17:35:39;3.03;;;2.10;;
58974;SDS011;44751;52.236;5.178;2023-04-01T17:38:46;2.25;;;2.00;;
58974;SDS011;44751;52.236;5.178;2023-04-01T17:41:24;2.42;;;1.60;;
58974;SDS011;44751;52.236;5.178;2023-04-01T17:44:07;4.20;;;2.95;;
58974;SDS011;44751;52.236;5.178;2023-04-01T17:47:00;2.47;;;2.28;;
58974;SDS011;44751;52.236;5.178;2023-04-01T18:01:00;2.97;;;2.60;;
58974;SDS011;44751;52.236;5.178;2023-04-01T18:06:34;3.40;;;3.10;;
58974;SDS011;44751;52.236;5.178;2023-04-01T18:15:12;3.47;;;3.17;;
58974;SDS011;44751;52.236;5.178;2023-04-01T18:17:57;3.85;;;3.47;;
58974;SDS011;44751;52.236;5.178;2023-04-01T18:20:48;3.67;;;3.30;;
58974;SDS011;44751;52.236;5.178;2023-04-01T18:23:38;3.25;;;2.78;;
58974;SDS011;44751;52.236;5.178;2023-04-01T18:26:20;3.35;;;3.05;;
58974;SDS011;44751;52.236;5.178;2023-04-01T18:28:52;3.10;;;2.80;;
58974;SDS011;44751;52.236;5.178;2023-04-01T18:31:24;3.50;;;3.20;;
58974;SDS011;44751;52.236;5.178;2023-04-01T18:34:06;3.35;;;3.08;;
58974;SDS011;44751;52.236;5.178;2023-04-01T18:36:51;2.97;;;2.78;;
58974;SDS011;44751;52.236;5.178;2023-04-01T18:39:22;3.45;;;3.15;;
58974;SDS011;44751;52.236;5.178;2023-04-01T18:42:06;4.40;;;4.00;;
58974;SDS011;44751;52.236;5.178;2023-04-01T18:44:46;3.65;;;3.35;;
58974;SDS011;44751;52.236;5.178;2023-04-01T18:49:52;4.28;;;3.88;;
58974;SDS011;44751;52.236;5.178;2023-04-01T19:00:14;7.78;;;7.07;;
58974;SDS011;44751;52.236;5.178;2023-04-01T19:03:11;6.57;;;5.88;;
58974;SDS011;44751;52.236;5.178;2023-04-01T19:05:49;7.30;;;6.60;;
58974;SDS011;44751;52.236;5.178;2023-04-01T19:11:01;7.95;;;6.45;;
58974;SDS011;44751;52.236;5.178;2023-04-01T19:16:43;7.22;;;6.53;;
58974;SDS011;44751;52.236;5.178;2023-04-01T19:21:47;10.00;;;6.93;;
58974;SDS011;44751;52.236;5.178;2023-04-01T19:27:14;11.20;;;7.70;;
58974;SDS011;44751;52.236;5.178;2023-04-01T19:32:46;8.38;;;7.25;;
58974;SDS011;44751;52.236;5.178;2023-04-01T19:35:29;9.70;;;7.80;;
58974;SDS011;44751;52.236;5.178;2023-04-01T19:38:12;8.85;;;7.35;;
58974;SDS011;44751;52.236;5.178;2023-04-01T19:44:09;8.55;;;7.28;;
58974;SDS011;44751;52.236;5.178;2023-04-01T19:49:38;8.45;;;7.47;;
58974;SDS011;44751;52.236;5.178;2023-04-01T19:52:19;8.73;;;7.22;;
58974;SDS011;44751;52.236;5.178;2023-04-01T20:00:57;8.40;;;6.80;;
58974;SDS011;44751;52.236;5.178;2023-04-01T20:03:41;9.65;;;7.57;;
58974;SDS011;44751;52.236;5.178;2023-04-01T20:14:49;7.85;;;6.57;;
58974;SDS011;44751;52.236;5.178;2023-04-01T20:25:20;8.97;;;7.20;;
58974;SDS011;44751;52.236;5.178;2023-04-01T20:33:33;7.05;;;6.35;;
58974;SDS011;44751;52.236;5.178;2023-04-01T20:42:11;8.38;;;7.03;;
58974;SDS011;44751;52.236;5.178;2023-04-01T20:47:53;8.60;;;6.53;;
58974;SDS011;44751;52.236;5.178;2023-04-01T20:56:55;9.45;;;7.03;;
58974;SDS011;44751;52.236;5.178;2023-04-01T21:07:54;10.38;;;7.07;;
58974;SDS011;44751;52.236;5.178;2023-04-01T21:13:12;8.50;;;7.22;;
58974;SDS011;44751;52.236;5.178;2023-04-01T21:15:48;8.50;;;6.70;;
58974;SDS011;44751;52.236;5.178;2023-04-01T21:30:54;8.57;;;7.30;;
58974;SDS011;44751;52.236;5.178;2023-04-01T21:34:42;10.48;;;7.28;;
58974;SDS011;44751;52.236;5.178;2023-04-01T21:36:52;11.00;;;8.15;;
58974;SDS011;44751;52.236;5.178;2023-04-01T21:45:01;10.80;;;8.85;;
58974;SDS011;44751;52.236;5.178;2023-04-01T21:53:56;10.20;;;8.43;;
58974;SDS011;44751;52.236;5.178;2023-04-01T22:05:07;9.27;;;7.93;;
58974;SDS011;44751;52.236;5.178;2023-04-01T22:10:43;11.38;;;8.50;;
58974;SDS011;44751;52.236;5.178;2023-04-01T22:13:18;11.18;;;7.75;;
58974;SDS011;44751;52.236;5.178;2023-04-01T22:22:29;11.00;;;7.90;;
58974;SDS011;44751;52.236;5.178;2023-04-01T22:25:01;8.85;;;7.88;;
58974;SDS011;44751;52.236;5.178;2023-04-01T22:27:48;10.30;;;7.82;;
58974;SDS011;44751;52.236;5.178;2023-04-01T22:30:41;11.18;;;8.15;;
58974;SDS011;44751;52.236;5.178;2023-04-01T22:41:09;10.73;;;8.73;;
58974;SDS011;44751;52.236;5.178;2023-04-01T22:43:59;13.68;;;8.57;;
58974;SDS011;44751;52.236;5.178;2023-04-01T22:49:57;12.60;;;9.25;;
58974;SDS011;44751;52.236;5.178;2023-04-01T22:52:31;11.68;;;8.35;;
58974;SDS011;44751;52.236;5.178;2023-04-01T23:00:42;12.20;;;8.98;;
58974;SDS011;44751;52.236;5.178;2023-04-01T23:03:25;14.75;;;9.40;;
58974;SDS011;44751;52.236;5.178;2023-04-01T23:05:59;12.45;;;9.23;;
58974;SDS011;44751;52.236;5.178;2023-04-01T23:11:20;15.02;;;10.00;;
58974;SDS011;44751;52.236;5.178;2023-04-01T23:14:10;15.27;;;9.77;;
58974;SDS011;44751;52.236;5.178;2023-04-01T23:17:01;14.48;;;9.20;;
58974;SDS011;44751;52.236;5.178;2023-04-01T23:19:37;13.85;;;9.32;;
58974;SDS011;44751;52.236;5.178;2023-04-01T23:22:21;13.35;;;9.38;;
58974;SDS011;44751;52.236;5.178;2023-04-01T23:25:16;16.65;;;9.75;;
58974;SDS011;44751;52.236;5.178;2023-04-01T23:27:56;18.17;;;9.45;;
58974;SDS011;44751;52.236;5.178;2023-04-01T23:35:54;14.77;;;9.37;;
58974;SDS011;44751;52.236;5.178;2023-04-01T23:38:41;15.32;;;9.57;;
58974;SDS011;44751;52.236;5.178;2023-04-01T23:41:16;15.20;;;9.50;;
58974;SDS011;44751;52.236;5.178;2023-04-01T23:43:54;13.45;;;9.32;;
58974;SDS011;44751;52.236;5.178;2023-04-01T23:46:40;16.10;;;10.40;;
58974;SDS011;44751;52.236;5.178;2023-04-01T23:49:14;14.93;;;10.48;;
58974;SDS011;44751;52.236;5.178;2023-04-01T23:51:57;12.25;;;9.65;;
58974;SDS011;44751;52.236;5.178;2023-04-01T23:54:30;19.02;;;10.50;;
58974;SDS011;44751;52.236;5.178;2023-04-01T23:56:57;17.83;;;11.23;;
58974;SDS011;44751;52.236;5.178;2023-04-01T23:59:38;16.55;;;10.45;;
